createdAt,value
2023-03-08T00:01:39.530Z,3.64
2023-03-08T00:04:11.974Z,3.67
2023-03-08T00:06:47.945Z,3.65
2023-03-08T00:09:16.692Z,3.62
2023-03-08T00:11:45.515Z,3.61
2023-03-08T00:14:14.286Z,3.59
2023-03-08T00:16:43.017Z,3.54
2023-03-08T00:19:13.228Z,3.50
2023-03-08T00:21:42.102Z,3.46
2023-03-08T00:24:12.081Z,3.32
2023-03-08T00:26:40.850Z,3.13
2023-03-08T00:29:09.636Z,2.94
2023-03-08T00:31:38.725Z,3.00
2023-03-08T00:34:07.713Z,2.84
2023-03-08T00:36:37.931Z,2.93
2023-03-08T00:39:07.210Z,2.94
2023-03-08T00:41:38.425Z,2.85
2023-03-08T00:44:07.305Z,2.85
2023-03-08T00:46:36.484Z,2.77
2023-03-08T00:49:05.594Z,2.75
2023-03-08T00:51:34.609Z,2.84
2023-03-08T00:54:05.478Z,2.81
2023-03-08T00:56:34.316Z,2.84
2023-03-08T00:59:03.155Z,2.94
2023-03-08T01:01:31.989Z,3.00
2023-03-08T01:04:00.996Z,2.99
2023-03-08T01:06:29.852Z,2.91
2023-03-08T01:08:58.554Z,2.71
2023-03-08T01:11:29.251Z,2.62
2023-03-08T01:13:58.041Z,2.69
2023-03-08T01:16:30.747Z,2.71
2023-03-08T01:19:02.770Z,2.62
2023-03-08T01:21:33.477Z,2.63
2023-03-08T01:24:02.227Z,2.73
2023-03-08T01:26:32.410Z,2.80
2023-03-08T01:29:02.339Z,2.85
2023-03-08T01:31:32.648Z,2.88
2023-03-08T01:34:02.256Z,2.87
2023-03-08T01:36:31.150Z,2.86
2023-03-08T01:39:02.487Z,2.79
2023-03-08T01:41:33.599Z,2.58
2023-03-08T01:44:03.273Z,2.63
2023-03-08T01:46:33.946Z,2.69
2023-03-08T01:49:27.110Z,2.72
2023-03-08T01:52:04.399Z,2.76
2023-03-08T01:54:40.982Z,2.73
2023-03-08T01:57:21.799Z,2.75
2023-03-08T01:59:53.029Z,2.78
2023-03-08T02:02:31.997Z,2.80
2023-03-08T02:05:01.234Z,2.73
2023-03-08T02:07:32.359Z,2.78
2023-03-08T02:10:01.432Z,2.75
2023-03-08T02:12:32.381Z,2.70
2023-03-08T02:15:04.500Z,2.69
2023-03-08T02:17:38.150Z,2.60
2023-03-08T02:20:18.159Z,2.56
2023-03-08T02:22:50.255Z,2.56
2023-03-08T02:25:22.857Z,2.59
2023-03-08T02:27:54.277Z,2.58
2023-03-08T02:30:28.556Z,2.63
2023-03-08T02:32:57.431Z,2.68
2023-03-08T02:35:30.980Z,2.72
2023-03-08T02:38:01.312Z,2.77
2023-03-08T02:40:30.128Z,2.80
2023-03-08T02:42:58.792Z,2.81
2023-03-08T02:45:27.451Z,2.81
2023-03-08T02:47:56.198Z,2.75
2023-03-08T02:50:25.597Z,2.75
2023-03-08T02:52:54.283Z,2.77
2023-03-08T02:55:24.297Z,2.75
2023-03-08T02:57:53.130Z,2.69
2023-03-08T03:00:23.051Z,2.73
2023-03-08T03:02:51.804Z,2.64
2023-03-08T03:05:22.018Z,2.70
2023-03-08T03:07:50.760Z,2.73
2023-03-08T03:10:23.443Z,2.75
2023-03-08T03:12:52.191Z,2.68
2023-03-08T03:15:23.856Z,2.72
2023-03-08T03:17:57.492Z,2.71
2023-03-08T03:20:26.709Z,2.70
2023-03-08T03:22:55.325Z,2.70
2023-03-08T03:25:31.143Z,2.64
2023-03-08T03:27:59.830Z,2.67
2023-03-08T03:30:30.331Z,2.70
2023-03-08T03:32:59.191Z,2.72
2023-03-08T03:35:32.323Z,2.73
2023-03-08T03:38:01.350Z,2.74
2023-03-08T03:40:31.667Z,2.74
2023-03-08T03:43:03.351Z,2.71
2023-03-08T03:45:32.136Z,2.74
2023-03-08T03:48:00.878Z,2.75
2023-03-08T03:50:35.363Z,2.77
2023-03-08T03:53:09.970Z,2.77
2023-03-08T03:55:40.116Z,2.77
2023-03-08T03:58:09.449Z,2.78
2023-03-08T04:00:38.390Z,2.79
2023-03-08T04:03:19.744Z,2.80
2023-03-08T04:05:49.166Z,2.81
2023-03-08T04:08:18.318Z,2.79
2023-03-08T04:10:48.653Z,2.80
2023-03-08T04:13:22.194Z,2.82
2023-03-08T04:15:51.376Z,2.83
2023-03-08T04:18:20.528Z,2.82
2023-03-08T04:20:49.289Z,2.80
2023-03-08T04:23:20.317Z,2.82
2023-03-08T04:25:54.946Z,2.75
2023-03-08T04:28:25.158Z,2.77
2023-03-08T04:30:54.067Z,2.80
2023-03-08T04:33:25.688Z,2.81
2023-03-08T04:35:54.805Z,2.72
2023-03-08T04:38:26.492Z,2.71
2023-03-08T04:44:24.514Z,2.76
2023-03-08T04:46:54.915Z,2.77
2023-03-08T04:49:58.366Z,2.75
2023-03-08T04:52:29.403Z,2.78
2023-03-08T04:55:00.962Z,2.75
2023-03-08T04:57:31.757Z,2.77
2023-03-08T05:00:06.016Z,2.75
2023-03-08T05:02:41.778Z,2.78
2023-03-08T05:05:18.056Z,2.73
2023-03-08T05:07:47.535Z,2.77
2023-03-08T05:10:19.920Z,2.81
2023-03-08T05:13:01.453Z,2.81
2023-03-08T05:15:34.042Z,2.80
2023-03-08T05:18:10.655Z,2.81
2023-03-08T05:20:41.773Z,2.84
2023-03-08T05:23:16.204Z,2.86
2023-03-08T05:25:46.764Z,2.87
2023-03-08T05:28:19.883Z,2.71
2023-03-08T05:30:49.369Z,2.79
2023-03-08T05:33:25.891Z,2.73
2023-03-08T05:35:58.204Z,2.75
2023-03-08T05:38:35.171Z,2.69
2023-03-08T05:41:12.657Z,2.74
2023-03-08T05:43:45.890Z,2.73
2023-03-08T05:46:25.040Z,2.78
2023-03-08T05:48:55.018Z,2.82
2023-03-08T05:51:24.293Z,2.84
2023-03-08T05:53:55.565Z,2.88
2023-03-08T05:56:25.513Z,2.89
2023-03-08T05:59:14.958Z,2.90
2023-03-08T06:02:07.214Z,2.91
2023-03-08T06:04:47.190Z,2.90
2023-03-08T06:07:21.634Z,2.88
2023-03-08T06:09:56.728Z,2.93
2023-03-08T06:12:26.340Z,2.96
2023-03-08T06:15:00.172Z,2.98
2023-03-08T06:17:57.294Z,2.94
2023-03-08T06:20:28.390Z,2.95
2023-03-08T06:22:58.827Z,2.98
2023-03-08T06:25:34.173Z,2.95
2023-03-08T06:28:03.422Z,2.88
2023-03-08T06:30:41.863Z,2.74
2023-03-08T06:33:10.707Z,2.80
2023-03-08T06:35:39.592Z,2.70
2023-03-08T06:38:08.443Z,2.70
2023-03-08T06:40:39.250Z,2.82
2023-03-08T06:43:08.411Z,2.92
2023-03-08T06:45:41.074Z,3.02
2023-03-08T06:48:10.088Z,3.04
2023-03-08T06:50:39.159Z,3.11
2023-03-08T06:53:08.510Z,3.19
2023-03-08T06:55:55.089Z,3.25
2023-03-08T06:58:36.424Z,3.33
2023-03-08T07:01:09.789Z,3.36
2023-03-08T07:03:39.034Z,3.37
2023-03-08T07:06:10.634Z,3.43
2023-03-08T07:08:51.922Z,3.31
2023-03-08T07:11:34.349Z,3.39
2023-03-08T07:14:05.898Z,3.47
2023-03-08T07:16:36.276Z,3.50
2023-03-08T07:19:05.342Z,3.56
2023-03-08T07:21:40.206Z,3.47
2023-03-08T07:24:11.737Z,3.48
2023-03-08T07:26:40.808Z,3.56
2023-03-08T07:29:09.683Z,3.47
2023-03-08T07:31:39.983Z,3.39
2023-03-08T07:34:11.993Z,3.31
2023-03-08T07:36:51.171Z,3.51
2023-03-08T07:39:20.113Z,3.63
2023-03-08T07:41:51.232Z,3.63
2023-03-08T07:44:20.175Z,3.66
2023-03-08T07:46:50.388Z,3.71
2023-03-08T07:49:19.119Z,3.70
2023-03-08T07:51:52.536Z,3.66
2023-03-08T07:54:24.533Z,3.75
2023-03-08T07:56:54.027Z,3.76
2023-03-08T07:59:22.813Z,3.68
2023-03-08T08:01:53.055Z,3.73
2023-03-08T08:04:24.533Z,3.71
2023-03-08T08:06:53.287Z,3.79
2023-03-08T08:09:25.230Z,3.96
2023-03-08T08:11:57.361Z,3.88
2023-03-08T08:14:26.182Z,3.98
2023-03-08T08:16:56.352Z,4.12
2023-03-08T08:19:25.614Z,4.23
2023-03-08T08:22:05.501Z,4.11
2023-03-08T08:24:34.879Z,4.17
2023-03-08T08:27:03.873Z,4.27
2023-03-08T08:29:34.945Z,4.12
2023-03-08T08:32:06.879Z,4.07
2023-03-08T08:34:38.505Z,4.14
2023-03-08T08:37:07.351Z,4.09
2023-03-08T08:39:44.290Z,4.10
2023-03-08T08:42:13.115Z,4.00
2023-03-08T08:44:41.920Z,4.02
2023-03-08T08:47:12.645Z,4.03
2023-03-08T08:49:43.328Z,3.99
2023-03-08T08:52:14.248Z,3.94
2023-03-08T08:54:46.298Z,4.03
2023-03-08T08:57:16.487Z,3.98
2023-03-08T08:59:49.158Z,3.91
2023-03-08T09:02:19.445Z,3.95
2023-03-08T09:04:51.593Z,3.97
2023-03-08T09:07:20.442Z,3.83
2023-03-08T09:09:55.246Z,3.75
2023-03-08T09:12:46.058Z,3.61
2023-03-08T09:15:22.180Z,3.41
2023-03-08T09:18:01.805Z,3.68
2023-03-08T09:20:39.375Z,3.62
2023-03-08T09:23:15.667Z,3.60
2023-03-08T09:25:48.889Z,3.75
2023-03-08T09:28:21.592Z,3.70
2023-03-08T09:31:05.799Z,3.79
2023-03-08T09:33:44.318Z,3.93
2023-03-08T09:36:33.177Z,3.97
2023-03-08T09:39:04.942Z,4.12
2023-03-08T09:41:51.751Z,4.18
2023-03-08T09:44:58.463Z,4.12
2023-03-08T09:47:42.985Z,4.12
2023-03-08T09:50:36.083Z,4.40
2023-03-08T09:53:17.603Z,4.18
2023-03-08T09:55:51.868Z,4.15
2023-03-08T09:58:33.500Z,4.21
2023-03-08T10:01:17.727Z,4.21
2023-03-08T10:04:21.278Z,4.39
2023-03-08T10:07:18.365Z,4.30
2023-03-08T10:10:02.643Z,4.23
2023-03-08T10:12:41.601Z,4.15
2023-03-08T10:15:18.896Z,4.02
2023-03-08T10:17:56.909Z,4.04
2023-03-08T10:20:30.325Z,3.89
2023-03-08T10:23:03.171Z,3.85
2023-03-08T10:25:34.566Z,3.91
2023-03-08T10:28:12.628Z,3.97
2023-03-08T10:30:46.706Z,4.11
2023-03-08T10:33:19.427Z,4.09
2023-03-08T10:36:02.419Z,4.14
2023-03-08T10:38:36.335Z,4.07
2023-03-08T10:41:13.220Z,4.14
2023-03-08T10:43:47.917Z,4.15
2023-03-08T10:46:19.433Z,4.02
2023-03-08T10:48:48.998Z,4.12
2023-03-08T10:51:20.391Z,4.10
2023-03-08T10:53:58.588Z,4.01
2023-03-08T10:56:35.462Z,3.99
2023-03-08T10:59:05.976Z,3.93
2023-03-08T11:01:48.331Z,3.67
2023-03-08T11:04:20.046Z,3.59
2023-03-08T11:06:49.090Z,3.59
2023-03-08T11:09:26.801Z,3.61
2023-03-08T11:11:56.994Z,3.48
2023-03-08T11:14:27.163Z,3.48
2023-03-08T11:17:19.405Z,3.35
2023-03-08T11:20:01.127Z,3.27
2023-03-08T11:22:51.389Z,3.19
2023-03-08T11:25:35.663Z,3.26
2023-03-08T11:28:52.568Z,3.14
2023-03-08T11:31:33.352Z,3.15
2023-03-08T11:34:52.134Z,3.09
2023-03-08T11:37:33.314Z,3.23
2023-03-08T11:40:21.173Z,3.29
2023-03-08T11:43:10.481Z,3.32
2023-03-08T11:45:53.357Z,3.26
2023-03-08T11:48:51.822Z,3.19
2023-03-08T11:51:31.192Z,3.25
2023-03-08T11:54:16.278Z,3.28
2023-03-08T11:56:52.239Z,3.27
2023-03-08T11:59:35.360Z,3.28
2023-03-08T12:02:19.714Z,3.31
2023-03-08T12:05:06.971Z,3.27
2023-03-08T12:07:42.525Z,3.27
2023-03-08T12:10:22.306Z,3.39
2023-03-08T12:12:56.814Z,3.58
2023-03-08T12:15:34.685Z,3.52
2023-03-08T12:18:15.779Z,3.62
2023-03-08T12:20:46.474Z,3.58
2023-03-08T12:23:27.234Z,3.62
2023-03-08T12:26:08.539Z,3.77
2023-03-08T12:28:45.116Z,3.77
2023-03-08T12:31:29.443Z,3.86
2023-03-08T12:34:00.852Z,3.89
2023-03-08T12:36:40.986Z,3.98
2023-03-08T12:39:27.235Z,4.09
2023-03-08T12:42:01.933Z,4.15
2023-03-08T12:44:32.421Z,4.26
2023-03-08T12:47:20.202Z,4.42
2023-03-08T12:49:55.166Z,4.49
2023-03-08T12:52:33.366Z,4.59
2023-03-08T12:55:09.069Z,4.67
2023-03-08T12:57:49.250Z,4.75
2023-03-08T13:00:31.685Z,4.82
2023-03-08T13:03:06.057Z,4.79
2023-03-08T13:05:37.847Z,4.79
2023-03-08T13:08:31.700Z,4.86
2023-03-08T13:11:12.870Z,4.92
2023-03-08T13:13:50.920Z,4.87
2023-03-08T13:16:36.508Z,4.96
2023-03-08T13:19:29.664Z,5.09
2023-03-08T13:22:13.502Z,5.17
2023-03-08T13:24:49.854Z,5.25
2023-03-08T13:27:34.765Z,5.21
2023-03-08T13:30:21.523Z,5.18
2023-03-08T13:32:51.330Z,5.28
2023-03-08T13:35:22.328Z,5.30
2023-03-08T13:37:55.801Z,5.33
2023-03-08T13:40:26.907Z,5.19
2023-03-08T13:42:57.802Z,5.20
2023-03-08T13:45:27.549Z,5.19
2023-03-08T13:47:59.596Z,5.19
2023-03-08T13:50:35.090Z,5.22
2023-03-08T13:53:10.439Z,5.13
2023-03-08T13:55:45.995Z,4.95
2023-03-08T13:58:27.749Z,5.05
2023-03-08T14:01:03.418Z,4.99
2023-03-08T14:03:34.640Z,5.16
2023-03-08T14:06:05.583Z,5.15
2023-03-08T14:08:35.088Z,4.95
2023-03-08T14:11:09.691Z,4.93
2023-03-08T14:13:42.661Z,4.76
2023-03-08T14:16:28.429Z,4.79
2023-03-08T14:18:58.100Z,4.75
2023-03-08T14:21:31.026Z,4.83
2023-03-08T14:24:02.552Z,4.74
2023-03-08T14:26:35.092Z,4.64
2023-03-08T14:29:14.687Z,4.49
2023-03-08T14:32:05.722Z,4.59
2023-03-08T14:34:39.341Z,4.79
2023-03-08T14:37:23.941Z,4.91
2023-03-08T14:39:56.227Z,4.93
2023-03-08T14:42:31.203Z,5.01
2023-03-08T14:45:04.040Z,5.04
2023-03-08T14:47:35.001Z,5.09
2023-03-08T14:50:20.789Z,5.10
2023-03-08T14:52:54.701Z,5.10
2023-03-08T14:55:26.698Z,5.10
2023-03-08T14:58:00.161Z,5.07
2023-03-08T15:00:30.313Z,5.06
2023-03-08T15:03:00.286Z,5.03
2023-03-08T15:05:31.186Z,4.92
2023-03-08T15:08:01.901Z,4.89
2023-03-08T15:10:34.797Z,4.90
2023-03-08T15:13:05.063Z,4.79
2023-03-08T15:15:33.847Z,4.74
2023-03-08T15:18:02.555Z,4.78
2023-03-08T15:20:31.795Z,4.76
2023-03-08T15:23:07.443Z,4.81
2023-03-08T15:25:39.677Z,4.79
2023-03-08T15:28:08.497Z,4.88
2023-03-08T15:30:37.196Z,4.89
2023-03-08T15:33:06.089Z,4.86
2023-03-08T15:35:35.110Z,4.85
2023-03-08T15:38:05.216Z,4.85
2023-03-08T15:40:37.115Z,4.88
2023-03-08T15:43:05.781Z,4.84
2023-03-08T15:45:35.129Z,4.76
2023-03-08T15:48:07.560Z,4.80
2023-03-08T15:50:36.762Z,4.84
2023-03-08T15:53:08.592Z,4.87
2023-03-08T15:55:39.958Z,4.90
2023-03-08T15:58:10.730Z,4.91
2023-03-08T16:00:40.795Z,4.94
2023-03-08T16:03:13.854Z,4.92
2023-03-08T16:05:42.742Z,4.93
2023-03-08T16:08:13.484Z,4.88
2023-03-08T16:10:42.152Z,4.89
2023-03-08T16:13:11.754Z,4.92
2023-03-08T16:15:41.988Z,4.89
2023-03-08T16:18:10.838Z,4.82
2023-03-08T16:20:41.356Z,4.87
2023-03-08T16:23:12.644Z,4.85
2023-03-08T16:25:43.411Z,4.85
2023-03-08T16:28:12.343Z,4.85
2023-03-08T16:30:43.083Z,4.86
2023-03-08T16:33:13.277Z,4.82
2023-03-08T16:35:43.095Z,4.72
2023-03-08T16:38:13.750Z,4.74
2023-03-08T16:41:51.353Z,4.77
2023-03-08T16:44:24.927Z,4.78
2023-03-08T16:46:54.067Z,4.73
2023-03-08T16:49:28.557Z,4.73
2023-03-08T16:51:58.048Z,4.73
2023-03-08T16:54:29.384Z,4.72
2023-03-08T16:57:01.074Z,4.67
2023-03-08T16:59:33.927Z,4.65
2023-03-08T17:02:02.948Z,4.63
2023-03-08T17:04:31.798Z,4.65
2023-03-08T17:07:00.787Z,4.52
2023-03-08T17:09:31.077Z,4.57
2023-03-08T17:11:59.977Z,4.61
2023-03-08T17:14:28.983Z,4.65
2023-03-08T17:17:00.283Z,4.67
2023-03-08T17:19:35.650Z,4.50
2023-03-08T17:22:05.994Z,4.56
2023-03-08T17:24:39.201Z,4.62
2023-03-08T17:27:07.967Z,4.59
2023-03-08T17:29:37.861Z,4.58
2023-03-08T17:32:07.614Z,4.63
2023-03-08T17:34:36.859Z,4.49
2023-03-08T17:37:11.409Z,4.55
2023-03-08T17:39:42.954Z,4.49
2023-03-08T17:42:12.314Z,4.46
2023-03-08T17:44:41.548Z,4.53
2023-03-08T17:47:13.959Z,4.56
2023-03-08T17:49:43.144Z,4.58
2023-03-08T17:52:12.583Z,4.60
2023-03-08T17:54:42.778Z,4.63
2023-03-08T17:57:11.833Z,4.50
2023-03-08T17:59:41.269Z,4.45
2023-03-08T18:02:12.862Z,4.52
2023-03-08T18:04:45.163Z,4.55
2023-03-08T18:07:15.695Z,4.47
2023-03-08T18:09:49.727Z,4.38
2023-03-08T18:12:18.838Z,4.40
2023-03-08T18:15:20.675Z,4.50
2023-03-08T18:17:49.464Z,4.44
2023-03-08T18:20:19.987Z,4.35
2023-03-08T18:22:51.016Z,4.43
2023-03-08T18:25:22.460Z,4.50
2023-03-08T18:27:51.222Z,4.52
2023-03-08T18:30:20.592Z,4.55
2023-03-08T18:32:51.029Z,4.58
2023-03-08T18:35:19.997Z,4.58
2023-03-08T18:37:48.818Z,4.60
2023-03-08T18:40:18.105Z,4.55
2023-03-08T18:42:48.233Z,4.48
2023-03-08T18:45:18.413Z,4.53
2023-03-08T18:47:51.799Z,4.49
2023-03-08T18:50:21.886Z,4.45
2023-03-08T18:52:50.609Z,4.38
2023-03-08T18:55:19.607Z,4.40
2023-03-08T18:57:49.685Z,4.42
2023-03-08T19:00:19.547Z,4.49
2023-03-08T19:02:48.212Z,4.52
2023-03-08T19:05:17.742Z,4.50
2023-03-08T19:07:46.775Z,4.53
2023-03-08T19:10:15.905Z,4.54
2023-03-08T19:12:44.878Z,4.56
2023-03-08T19:15:15.084Z,4.57
2023-03-08T19:17:43.816Z,4.56
2023-03-08T19:20:14.455Z,4.50
2023-03-08T19:22:43.469Z,4.47
2023-03-08T19:25:13.415Z,4.44
2023-03-08T19:27:42.096Z,4.36
2023-03-08T19:30:12.881Z,4.34
2023-03-08T19:32:43.233Z,4.43
2023-03-08T19:35:12.273Z,4.47
2023-03-08T19:37:51.941Z,4.49
2023-03-08T19:40:21.600Z,4.50
2023-03-08T19:43:15.282Z,4.53
2023-03-08T19:45:50.106Z,4.53
2023-03-08T19:48:21.079Z,4.53
2023-03-08T19:50:49.866Z,4.45
2023-03-08T19:53:18.621Z,4.48
2023-03-08T19:55:51.366Z,4.49
2023-03-08T19:58:21.431Z,4.51
2023-03-08T20:00:51.364Z,4.52
2023-03-08T20:03:22.741Z,4.54
2023-03-08T20:05:51.772Z,4.54
2023-03-08T20:08:21.322Z,4.53
2023-03-08T20:10:50.630Z,4.54
2023-03-08T20:13:19.637Z,4.56
2023-03-08T20:15:49.698Z,4.57
2023-03-08T20:18:18.602Z,4.57
2023-03-08T20:20:50.359Z,4.49
2023-03-08T20:23:19.441Z,4.42
2023-03-08T20:25:48.509Z,4.38
2023-03-08T20:28:19.509Z,4.33
2023-03-08T20:30:49.033Z,4.23
2023-03-08T20:33:19.410Z,4.32
2023-03-08T20:35:59.059Z,4.38
2023-03-08T20:38:28.684Z,4.41
2023-03-08T20:41:03.472Z,4.45
2023-03-08T20:43:34.038Z,4.47
2023-03-08T20:46:07.204Z,4.52
2023-03-08T20:48:38.101Z,4.51
2023-03-08T20:51:12.694Z,4.51
2023-03-08T20:53:42.546Z,4.51
2023-03-08T20:56:15.954Z,4.53
2023-03-08T20:58:45.522Z,4.47
2023-03-08T21:01:16.462Z,4.39
2023-03-08T21:03:46.045Z,4.39
2023-03-08T21:06:20.237Z,4.42
2023-03-08T21:08:50.575Z,4.35
2023-03-08T21:11:19.784Z,4.29
2023-03-08T21:13:50.574Z,4.27
2023-03-08T21:16:23.089Z,4.25
2023-03-08T21:18:53.235Z,4.23
2023-03-08T21:21:27.344Z,4.26
2023-03-08T21:23:57.808Z,4.33
2023-03-08T21:26:29.023Z,4.36
2023-03-08T21:29:02.413Z,4.30
2023-03-08T21:31:32.322Z,4.29
2023-03-08T21:34:03.805Z,4.35
2023-03-08T21:36:35.243Z,4.38
2023-03-08T21:39:04.281Z,4.39
2023-03-08T21:41:35.284Z,4.41
2023-03-08T21:44:09.442Z,4.43
2023-03-08T21:46:39.789Z,4.40
2023-03-08T21:49:10.130Z,4.43
2023-03-08T21:51:40.228Z,4.43
2023-03-08T21:54:08.980Z,4.45
2023-03-08T21:56:37.644Z,4.46
2023-03-08T21:59:06.721Z,4.45
2023-03-08T22:01:36.433Z,4.46
2023-03-08T22:04:06.532Z,4.40
2023-03-08T22:06:35.229Z,4.27
2023-03-08T22:09:05.721Z,4.25
2023-03-08T22:11:34.442Z,4.33
2023-03-08T22:14:03.331Z,4.38
2023-03-08T22:16:33.227Z,4.42
2023-03-08T22:19:03.384Z,4.44
2023-03-08T22:21:32.560Z,4.41
2023-03-08T22:24:04.204Z,4.43
2023-03-08T22:26:33.519Z,4.31
2023-03-08T22:29:02.236Z,4.38
2023-03-08T22:31:31.674Z,4.43
2023-03-08T22:34:01.449Z,4.40
2023-03-08T22:36:30.398Z,4.33
2023-03-08T22:38:59.123Z,4.36
2023-03-08T22:41:29.854Z,4.24
2023-03-08T22:43:59.268Z,4.30
2023-03-08T22:46:29.446Z,4.36
2023-03-08T22:48:59.605Z,4.39
2023-03-08T22:51:28.881Z,4.41
2023-03-08T22:53:59.166Z,4.43
2023-03-08T22:56:31.452Z,4.45
2023-03-08T22:59:00.405Z,4.41
2023-03-08T23:01:32.540Z,4.25
2023-03-08T23:04:03.379Z,4.34
2023-03-08T23:06:33.732Z,4.41
2023-03-08T23:09:08.542Z,4.42
2023-03-08T23:11:39.225Z,4.42
2023-03-08T23:14:09.112Z,4.43
2023-03-08T23:16:41.492Z,4.44
2023-03-08T23:19:14.948Z,4.47
2023-03-08T23:21:44.604Z,4.48
2023-03-08T23:24:13.691Z,4.49
2023-03-08T23:26:45.917Z,4.51
2023-03-08T23:29:15.979Z,4.53
2023-03-08T23:31:47.297Z,4.53
2023-03-08T23:34:16.184Z,4.53
2023-03-08T23:36:44.857Z,4.54
2023-03-08T23:39:13.718Z,4.54
2023-03-08T23:41:45.266Z,4.55
2023-03-08T23:44:14.252Z,4.46
2023-03-08T23:46:46.293Z,4.49
2023-03-08T23:49:16.954Z,4.51
2023-03-08T23:51:46.451Z,4.54
2023-03-08T23:54:15.152Z,4.53
2023-03-08T23:56:45.344Z,4.53
2023-03-08T23:59:18.475Z,4.45
